Time;durP1;ratioP1;P1;durP2;ratioP2;P2;SDS_P1;SDS_P2;PMS_P1;PMS_P2;Temp;Humidity;BMP_temperature;BMP_pressure;BME280_temperature;BME280_humidity;BME280_pressure;Samples;Min_cycle;Max_cycle;Signal;HPM_P1;HPM_P2
2022/07/12 00:00:15;;;;;;;4.90;3.60;;;15.30;99.90;;;;;;5069353;28;20291;-77
2022/07/12 00:02:43;;;;;;;4.23;3.30;;;15.30;99.90;;;;;;5052104;28;20240;-75
2022/07/12 00:05:12;;;;;;;3.93;3.33;;;15.30;99.90;;;;;;5058227;28;20578;-76
2022/07/12 00:07:41;;;;;;;3.57;3.27;;;15.30;99.90;;;;;;5066835;28;20302;-78
2022/07/12 00:10:10;;;;;;;4.10;3.50;;;15.30;99.90;;;;;;5070292;28;20212;-78
2022/07/12 00:12:38;;;;;;;3.67;3.37;;;15.20;99.90;;;;;;5064728;28;20614;-78
2022/07/12 00:15:08;;;;;;;3.83;3.30;;;15.20;99.90;;;;;;5068590;28;20685;-79
2022/07/12 00:17:38;;;;;;;4.33;3.30;;;15.20;99.90;;;;;;5073495;28;20253;-80
2022/07/12 00:20:08;;;;;;;5.43;3.73;;;15.20;99.90;;;;;;5063230;28;20279;-78
2022/07/12 00:22:36;;;;;;;6.57;3.90;;;15.20;99.90;;;;;;5064064;28;20685;-78
2022/07/12 00:25:06;;;;;;;4.67;3.53;;;15.20;99.90;;;;;;5055290;28;20248;-78
2022/07/12 00:27:34;;;;;;;4.70;3.87;;;15.20;99.90;;;;;;5070956;28;20236;-79
2022/07/12 00:30:02;;;;;;;4.27;3.77;;;15.20;99.90;;;;;;5070283;28;20271;-80
2022/07/12 00:32:30;;;;;;;4.60;3.33;;;15.20;99.90;;;;;;5069583;28;20239;-76
2022/07/12 00:35:02;;;;;;;4.57;3.60;;;15.10;99.90;;;;;;5060282;28;20240;-78
2022/07/12 00:37:30;;;;;;;4.20;3.80;;;15.10;99.90;;;;;;5069782;28;20208;-76
2022/07/12 00:39:59;;;;;;;4.87;3.70;;;15.10;99.90;;;;;;5069117;28;20298;-76
2022/07/12 00:42:27;;;;;;;4.70;3.67;;;15.10;99.90;;;;;;5050821;28;20222;-79
2022/07/12 00:44:56;;;;;;;4.23;3.63;;;15.10;99.90;;;;;;5051091;28;20262;-80
2022/07/12 00:47:33;;;;;;;5.20;3.60;;;15.00;99.90;;;;;;5062392;28;20239;-78
2022/07/12 00:50:03;;;;;;;4.63;3.70;;;15.00;99.90;;;;;;5075977;28;20242;-80
2022/07/12 00:52:32;;;;;;;3.93;3.60;;;15.00;99.90;;;;;;5061802;28;20303;-80
2022/07/12 00:55:01;;;;;;;6.40;3.87;;;15.00;99.90;;;;;;5073558;28;20546;-75
2022/07/12 00:57:30;;;;;;;4.53;3.97;;;15.00;99.90;;;;;;5068131;28;20327;-77
2022/07/12 00:59:59;;;;;;;6.23;3.50;;;15.00;99.90;;;;;;5068254;28;20298;-75
2022/07/12 01:02:28;;;;;;;4.07;3.50;;;15.00;99.90;;;;;;5073570;28;20258;-78
2022/07/12 01:04:57;;;;;;;4.50;3.50;;;14.90;99.90;;;;;;5074744;28;20235;-77
2022/07/12 01:07:28;;;;;;;5.57;3.60;;;14.90;99.90;;;;;;5058870;28;20204;-76
2022/07/12 01:09:56;;;;;;;3.73;3.40;;;14.90;99.90;;;;;;5072949;28;20258;-78
2022/07/12 01:12:26;;;;;;;4.13;3.20;;;14.90;99.90;;;;;;5059136;28;20669;-76
2022/07/12 01:14:54;;;;;;;5.93;3.43;;;14.90;99.90;;;;;;5070501;28;20286;-79
2022/07/12 01:17:26;;;;;;;4.47;3.80;;;14.90;99.90;;;;;;5073856;28;20290;-78
2022/07/12 01:19:57;;;;;;;4.80;3.50;;;14.80;99.90;;;;;;5092712;28;20187;-76
2022/07/12 01:22:31;;;;;;;3.90;3.50;;;14.80;99.90;;;;;;5068908;28;20231;-79
2022/07/12 01:25:02;;;;;;;4.83;3.57;;;14.70;99.90;;;;;;5054707;28;20192;-79
2022/07/12 01:27:30;;;;;;;5.30;3.90;;;14.70;99.90;;;;;;5054409;28;20287;-76
2022/07/12 01:29:58;;;;;;;3.93;3.53;;;14.70;99.90;;;;;;5054322;28;20262;-78
2022/07/12 01:32:28;;;;;;;5.00;3.60;;;14.70;99.90;;;;;;5072472;28;20204;-79
2022/07/12 01:34:57;;;;;;;3.80;3.43;;;14.60;99.90;;;;;;5073630;28;20219;-76
2022/07/12 01:37:30;;;;;;;5.30;3.60;;;14.60;99.90;;;;;;5064258;28;20260;-76
2022/07/12 01:40:01;;;;;;;4.23;3.63;;;14.60;99.90;;;;;;5054405;28;20299;-78
2022/07/12 01:42:30;;;;;;;4.27;3.70;;;14.60;99.90;;;;;;5054302;28;20255;-80
2022/07/12 01:45:00;;;;;;;5.00;3.80;;;14.50;99.90;;;;;;5069610;28;20250;-80
2022/07/12 01:47:29;;;;;;;4.70;3.90;;;14.50;99.90;;;;;;5058915;28;20212;-80
2022/07/12 01:49:58;;;;;;;4.20;3.70;;;14.40;99.90;;;;;;5070372;28;20660;-76
2022/07/12 01:52:27;;;;;;;5.97;4.10;;;14.40;99.90;;;;;;5091164;28;20230;-77
2022/07/12 01:54:56;;;;;;;5.17;4.00;;;14.40;99.90;;;;;;5090635;28;20211;-77
2022/07/12 01:57:27;;;;;;;4.30;3.90;;;14.40;99.90;;;;;;5072622;28;20242;-75
2022/07/12 01:59:56;;;;;;;6.13;4.30;;;14.30;99.90;;;;;;5078534;28;20196;-76
2022/07/12 02:02:26;;;;;;;4.57;4.13;;;14.30;99.90;;;;;;5076830;28;20669;-77
2022/07/12 02:04:55;;;;;;;6.13;4.23;;;14.20;99.90;;;;;;5075113;28;20656;-77
2022/07/12 02:07:24;;;;;;;6.50;4.40;;;14.10;99.90;;;;;;5074266;28;20220;-77
2022/07/12 02:09:53;;;;;;;4.77;4.33;;;14.10;99.90;;;;;;5074041;28;20692;-79
2022/07/12 02:12:21;;;;;;;5.40;4.47;;;14.00;99.90;;;;;;5075769;28;20307;-78
2022/07/12 02:14:51;;;;;;;5.63;4.90;;;13.90;99.90;;;;;;5076055;28;20211;-77
2022/07/12 02:17:20;;;;;;;4.90;4.40;;;13.80;99.90;;;;;;5075411;28;20217;-76
2022/07/12 02:19:48;;;;;;;5.17;4.50;;;13.80;99.90;;;;;;5069195;28;20199;-76
2022/07/12 02:22:17;;;;;;;7.20;5.03;;;13.70;99.90;;;;;;5062748;28;20291;-77
2022/07/12 02:24:45;;;;;;;5.27;4.70;;;13.70;99.90;;;;;;5055128;28;20553;-78
2022/07/12 02:27:13;;;;;;;7.00;4.27;;;13.60;99.90;;;;;;5056650;28;20250;-76
2022/07/12 02:29:42;;;;;;;6.30;4.70;;;13.50;99.90;;;;;;5056699;28;20267;-75
2022/07/12 02:32:11;;;;;;;5.50;4.93;;;13.50;99.90;;;;;;5057186;28;20297;-76
2022/07/12 02:34:40;;;;;;;5.13;4.63;;;13.40;99.90;;;;;;5059605;28;20228;-77
2022/07/12 02:37:08;;;;;;;8.27;5.10;;;13.40;99.90;;;;;;5063739;28;20223;-78
2022/07/12 02:39:37;;;;;;;5.53;4.80;;;13.30;99.90;;;;;;5077698;28;20290;-75
2022/07/12 02:42:06;;;;;;;6.07;4.83;;;13.30;99.90;;;;;;5079647;28;20215;-74
2022/07/12 02:44:34;;;;;;;6.10;4.90;;;13.20;99.90;;;;;;5079397;28;20823;-75
2022/07/12 02:47:02;;;;;;;7.93;5.70;;;13.20;99.90;;;;;;5074623;28;20890;-75
2022/07/12 02:49:32;;;;;;;7.10;5.33;;;13.10;99.90;;;;;;5057219;28;20204;-76
2022/07/12 02:52:00;;;;;;;5.20;4.70;;;13.10;99.90;;;;;;5056224;28;20250;-76
2022/07/12 02:54:28;;;;;;;6.67;5.43;;;13.00;99.90;;;;;;5057163;28;20708;-76
2022/07/12 02:56:56;;;;;;;7.60;5.33;;;13.00;99.90;;;;;;5058486;28;20260;-75
2022/07/12 02:59:25;;;;;;;5.83;5.20;;;12.90;99.90;;;;;;5059948;28;20706;-75
2022/07/12 03:01:53;;;;;;;7.47;5.47;;;12.90;99.90;;;;;;5058187;28;20299;-73
2022/07/12 03:04:21;;;;;;;6.40;5.80;;;12.80;99.90;;;;;;5060256;28;20248;-76
2022/07/12 03:06:51;;;;;;;7.13;6.20;;;12.80;99.90;;;;;;5059656;28;20270;-76
2022/07/12 03:09:19;;;;;;;8.37;5.17;;;12.80;99.90;;;;;;5057965;28;20252;-74
2022/07/12 03:11:47;;;;;;;6.07;5.43;;;12.70;99.90;;;;;;5062226;28;20287;-74
2022/07/12 03:14:16;;;;;;;6.07;5.40;;;12.70;99.90;;;;;;5082039;28;20259;-77
2022/07/12 03:16:44;;;;;;;6.20;5.60;;;12.70;99.90;;;;;;5079834;28;20690;-77
2022/07/12 03:19:13;;;;;;;6.17;5.57;;;12.60;99.90;;;;;;5080371;28;20256;-74
2022/07/12 03:21:42;;;;;;;7.10;5.27;;;12.60;99.90;;;;;;5076736;28;20195;-76
2022/07/12 03:24:11;;;;;;;6.90;5.47;;;12.60;99.90;;;;;;5066035;28;20228;-77
2022/07/12 03:26:39;;;;;;;8.10;5.73;;;12.60;99.90;;;;;;5078512;28;20214;-77
2022/07/12 03:29:08;;;;;;;8.47;5.80;;;12.60;99.90;;;;;;5076993;28;20243;-76
2022/07/12 03:31:37;;;;;;;6.60;5.40;;;12.60;99.90;;;;;;5076643;28;20351;-77
2022/07/12 03:34:06;;;;;;;8.97;5.50;;;12.60;99.90;;;;;;5074806;28;20214;-77
2022/07/12 03:36:34;;;;;;;7.73;5.27;;;12.60;99.90;;;;;;5072175;28;20227;-75
2022/07/12 03:39:02;;;;;;;6.30;5.57;;;12.50;99.90;;;;;;5073848;28;20211;-75
2022/07/12 03:41:32;;;;;;;9.53;5.30;;;12.50;99.90;;;;;;5077744;28;20223;-74
2022/07/12 03:44:00;;;;;;;7.73;6.00;;;12.50;99.90;;;;;;5074664;28;20214;-74
2022/07/12 03:46:28;;;;;;;7.77;5.40;;;12.50;99.90;;;;;;5056551;28;20212;-74
2022/07/12 03:48:57;;;;;;;6.60;5.20;;;12.50;99.90;;;;;;5053045;28;20315;-76
2022/07/12 03:51:25;;;;;;;7.67;6.23;;;12.50;99.90;;;;;;5052848;28;20228;-75
2022/07/12 03:53:53;;;;;;;8.27;6.53;;;12.60;99.90;;;;;;5059627;28;20208;-75
2022/07/12 03:59:05;;;;;;;9.33;7.63;;;12.70;99.90;;;;;;5069394;28;20290;-74
2022/07/12 04:01:33;;;;;;;8.77;7.37;;;12.80;99.90;;;;;;5071322;28;20236;-76
2022/07/12 04:04:02;;;;;;;10.43;7.10;;;12.90;99.90;;;;;;5068948;28;20253;-76
2022/07/12 04:06:31;;;;;;;8.00;7.20;;;13.00;99.90;;;;;;5071595;28;20210;-79
2022/07/12 04:09:00;;;;;;;9.43;7.23;;;13.10;99.90;;;;;;5071811;28;20680;-76
2022/07/12 04:11:28;;;;;;;9.13;7.33;;;13.20;99.90;;;;;;5069249;28;20653;-76
2022/07/12 04:13:56;;;;;;;9.17;6.90;;;13.30;99.90;;;;;;5055463;28;20291;-76
2022/07/12 04:16:26;;;;;;;7.93;6.40;;;13.30;99.90;;;;;;5053377;28;20208;-75
2022/07/12 04:18:55;;;;;;;6.87;5.60;;;13.50;99.90;;;;;;5055989;28;20222;-76
2022/07/12 04:21:24;;;;;;;7.57;5.20;;;13.60;99.90;;;;;;5060538;28;20202;-76
2022/07/12 04:23:52;;;;;;;7.57;5.60;;;13.70;99.90;;;;;;5064117;28;20266;-77
2022/07/12 04:26:20;;;;;;;7.23;5.17;;;13.70;99.90;;;;;;5053583;28;20273;-76
2022/07/12 04:28:48;;;;;;;6.63;5.23;;;13.80;99.90;;;;;;5051711;28;20295;-79
2022/07/12 04:31:17;;;;;;;5.83;4.90;;;13.90;99.90;;;;;;5055396;28;20655;-77
2022/07/12 04:33:46;;;;;;;5.23;4.70;;;14.00;99.90;;;;;;5057545;28;20261;-76
2022/07/12 04:36:14;;;;;;;6.33;5.10;;;14.00;99.90;;;;;;5075528;28;20315;-75
2022/07/12 04:38:42;;;;;;;5.10;4.60;;;14.00;99.90;;;;;;5074074;28;20284;-79
2022/07/12 04:41:11;;;;;;;5.83;4.87;;;14.10;99.90;;;;;;5074644;28;20342;-76
2022/07/12 04:43:39;;;;;;;5.77;4.70;;;14.20;99.90;;;;;;5074470;28;20302;-75
2022/07/12 04:46:07;;;;;;;4.80;4.10;;;14.30;99.90;;;;;;5082086;28;20288;-76
2022/07/12 04:48:36;;;;;;;5.40;4.70;;;14.30;99.90;;;;;;5055068;28;20727;-77
2022/07/12 04:51:06;;;;;;;4.53;3.97;;;14.30;99.90;;;;;;5059604;28;20219;-78
2022/07/12 04:53:34;;;;;;;5.17;4.17;;;14.30;99.90;;;;;;5074863;28;20247;-77
2022/07/12 04:56:02;;;;;;;5.23;4.20;;;14.40;99.90;;;;;;5064073;28;20243;-78
2022/07/12 04:58:30;;;;;;;6.40;3.77;;;14.40;99.90;;;;;;5055408;28;20211;-79
2022/07/12 05:00:59;;;;;;;7.70;4.03;;;14.50;99.90;;;;;;5055587;28;20232;-78
2022/07/12 05:03:28;;;;;;;5.13;3.90;;;14.50;99.90;;;;;;5052699;28;20265;-78
2022/07/12 05:05:57;;;;;;;4.60;3.60;;;14.60;99.90;;;;;;5052532;28;20207;-77
2022/07/12 05:08:27;;;;;;;3.70;3.40;;;14.70;99.90;;;;;;5052538;28;20219;-78
2022/07/12 05:10:56;;;;;;;3.60;3.30;;;14.80;99.90;;;;;;5052695;28;20283;-77
2022/07/12 05:13:25;;;;;;;4.17;3.47;;;14.80;99.90;;;;;;5053553;28;20641;-76
2022/07/12 05:15:53;;;;;;;5.73;3.60;;;14.80;99.90;;;;;;5077240;28;20188;-75
2022/07/12 05:18:23;;;;;;;5.10;3.97;;;14.90;99.90;;;;;;5071996;28;20204;-76
2022/07/12 05:20:51;;;;;;;5.73;3.67;;;14.90;99.90;;;;;;5054465;28;20201;-76
2022/07/12 05:23:19;;;;;;;4.33;3.93;;;15.00;99.90;;;;;;5055279;28;20200;-77
2022/07/12 05:25:49;;;;;;;5.67;3.80;;;15.00;99.90;;;;;;5054800;28;20214;-76
2022/07/12 05:28:17;;;;;;;5.00;4.10;;;15.10;99.90;;;;;;5056670;28;20216;-76
2022/07/12 05:30:46;;;;;;;5.70;4.20;;;15.10;99.90;;;;;;5055050;28;20212;-77
2022/07/12 05:33:14;;;;;;;4.97;4.40;;;15.20;99.90;;;;;;5065660;28;20233;-76
2022/07/12 05:35:42;;;;;;;4.73;3.33;;;15.20;99.90;;;;;;5075703;28;20717;-75
2022/07/12 05:38:11;;;;;;;6.00;2.60;;;15.20;99.90;;;;;;5078045;28;20577;-76
2022/07/12 05:40:39;;;;;;;3.30;2.80;;;15.20;99.90;;;;;;5081614;28;20207;-73
2022/07/12 05:43:08;;;;;;;3.30;2.77;;;15.20;99.90;;;;;;5083382;28;20214;-76
2022/07/12 05:45:37;;;;;;;3.73;2.80;;;15.30;99.90;;;;;;5083988;28;20214;-77
2022/07/12 05:48:06;;;;;;;3.73;2.70;;;15.40;99.90;;;;;;5080045;28;20286;-74
2022/07/12 05:50:34;;;;;;;2.77;2.50;;;15.60;99.90;;;;;;5091303;28;20700;-75
2022/07/12 05:55:49;;;;;;;3.50;2.23;;;16.00;99.90;;;;;;5075211;28;20247;-79
2022/07/12 05:58:19;;;;;;;2.67;2.47;;;16.30;99.90;;;;;;5074955;28;20302;-77
2022/07/12 06:00:48;;;;;;;3.20;1.93;;;17.00;99.90;;;;;;5068251;28;20235;-77
2022/07/12 06:03:16;;;;;;;2.13;1.80;;;18.40;99.90;;;;;;5053929;28;20224;-77
2022/07/12 06:05:45;;;;;;;1.97;1.47;;;19.70;99.90;;;;;;5053579;28;20216;-79
2022/07/12 06:08:14;;;;;;;1.80;1.70;;;21.00;99.90;;;;;;5053459;28;20247;-77
2022/07/12 06:10:42;;;;;;;1.50;1.40;;;22.30;99.90;;;;;;5053493;28;20189;-77
2022/07/12 06:13:10;;;;;;;1.70;1.27;;;23.30;99.90;;;;;;5053914;28;20327;-76
2022/07/12 06:15:40;;;;;;;1.40;1.30;;;23.30;99.90;;;;;;5053641;28;20295;-76
2022/07/12 06:18:08;;;;;;;2.10;1.23;;;23.60;99.90;;;;;;5053321;28;20650;-76
2022/07/12 06:20:36;;;;;;;2.80;1.20;;;24.10;99.90;;;;;;5053022;28;20568;-77
2022/07/12 06:23:05;;;;;;;1.33;1.23;;;24.90;99.90;;;;;;5052764;28;20208;-77
2022/07/12 06:25:33;;;;;;;1.50;1.40;;;25.70;99.90;;;;;;5052718;28;20212;-77
2022/07/12 06:28:11;;;;;;;2.25;1.65;;;25.70;99.90;;;;;;5053235;28;20192;-76
2022/07/12 06:30:41;;;;;;;4.35;1.60;;;25.70;99.90;;;;;;5052615;28;20320;-75
2022/07/12 06:33:09;;;;;;;2.15;1.50;;;26.70;99.90;;;;;;5052708;28;20252;-78
2022/07/12 06:35:37;;;;;;;1.73;1.63;;;27.20;99.90;;;;;;5052581;28;20229;-75
2022/07/12 06:38:06;;;;;;;3.75;1.90;;;27.60;99.20;;;;;;5053021;28;20243;-78
2022/07/12 06:40:34;;;;;;;3.95;2.08;;;27.50;99.40;;;;;;5052476;28;20231;-76
2022/07/12 06:43:02;;;;;;;2.67;1.70;;;27.00;97.90;;;;;;5052550;28;20562;-76
2022/07/12 06:45:31;;;;;;;2.60;1.40;;;26.80;98.80;;;;;;5052652;28;20331;-78
2022/07/12 06:48:00;;;;;;;1.70;1.60;;;27.80;98.00;;;;;;5052340;28;20255;-78
2022/07/12 06:50:28;;;;;;;1.52;1.42;;;28.50;95.70;;;;;;5052723;28;20616;-76
2022/07/12 06:52:57;;;;;;;1.65;1.45;;;28.80;95.10;;;;;;5051867;28;20227;-78
2022/07/12 06:55:26;;;;;;;3.92;1.88;;;29.00;93.40;;;;;;5057021;28;20294;-76
2022/07/12 06:57:54;;;;;;;3.95;1.50;;;28.00;94.40;;;;;;5072173;28;20235;-78
2022/07/12 07:00:22;;;;;;;1.67;0.90;;;28.80;93.70;;;;;;5071984;28;20212;-77
2022/07/12 07:02:50;;;;;;;1.10;0.93;;;28.40;92.70;;;;;;5070946;28;20207;-78
2022/07/12 07:05:21;;;;;;;0.82;0.82;;;27.80;93.90;;;;;;5070595;28;20211;-78
2022/07/12 07:07:50;;;;;;;6.10;0.90;;;28.70;91.70;;;;;;5070560;28;20215;-78
2022/07/12 07:10:18;;;;;;;3.08;1.02;;;28.50;91.20;;;;;;5070891;28;20279;-77
2022/07/12 07:12:47;;;;;;;2.38;0.95;;;28.40;91.90;;;;;;5071195;28;20327;-78
2022/07/12 07:15:16;;;;;;;0.75;0.75;;;29.60;90.80;;;;;;5070853;28;20210;-79
2022/07/12 07:17:44;;;;;;;1.25;1.02;;;30.30;88.20;;;;;;5071675;28;20253;-77
2022/07/12 07:20:13;;;;;;;3.30;1.42;;;30.80;88.40;;;;;;5072454;28;20243;-79
2022/07/12 07:22:43;;;;;;;2.15;1.10;;;30.70;87.30;;;;;;5071921;28;20235;-79
2022/07/12 07:25:11;;;;;;;2.45;1.10;;;30.70;87.20;;;;;;5072271;28;20207;-78
2022/07/12 07:27:40;;;;;;;3.58;1.40;;;30.50;88.00;;;;;;5072024;28;20255;-77
2022/07/12 07:32:55;;;;;;;2.70;1.20;;;30.10;88.10;;;;;;5052164;28;20263;-79
2022/07/12 07:35:25;;;;;;;1.00;0.88;;;30.40;84.60;;;;;;5052555;28;20233;-79
2022/07/12 07:37:54;;;;;;;0.85;0.85;;;31.10;81.90;;;;;;5054175;28;20215;-78
2022/07/12 07:40:23;;;;;;;1.65;0.80;;;30.80;81.80;;;;;;5052663;28;20212;-80
2022/07/12 07:42:51;;;;;;;1.63;0.73;;;31.20;81.30;;;;;;5051916;28;20211;-79
2022/07/12 07:45:22;;;;;;;0.80;0.80;;;31.30;79.10;;;;;;5052105;28;20300;-80
2022/07/12 07:47:50;;;;;;;1.98;0.73;;;30.00;83.00;;;;;;5052367;28;20254;-79
2022/07/12 07:50:39;;;;;;;0.85;0.70;;;30.10;80.50;;;;;;5056603;28;20216;-80
2022/07/12 07:53:08;;;;;;;2.45;0.50;;;30.50;79.40;;;;;;5053561;28;20235;-79
2022/07/12 07:55:37;;;;;;;0.63;0.52;;;31.00;78.00;;;;;;5058234;28;20242;-79
2022/07/12 07:58:05;;;;;;;0.82;0.55;;;31.00;76.10;;;;;;5055980;28;20235;-80
2022/07/12 08:00:34;;;;;;;0.73;0.65;;;31.20;76.80;;;;;;5052203;28;20254;-80
2022/07/12 08:03:02;;;;;;;0.70;0.50;;;30.50;76.40;;;;;;5053484;28;20208;-79
2022/07/12 08:05:30;;;;;;;0.40;0.40;;;31.00;78.10;;;;;;5056102;28;20244;-79
2022/07/12 08:07:59;;;;;;;1.27;0.80;;;30.40;77.60;;;;;;5055758;28;20466;-78
2022/07/12 08:10:28;;;;;;;1.15;0.60;;;30.50;77.80;;;;;;5055928;28;20199;-79
2022/07/12 08:12:56;;;;;;;0.75;0.70;;;30.40;80.10;;;;;;5056564;28;20224;-79
2022/07/12 08:15:25;;;;;;;1.45;0.70;;;31.20;78.60;;;;;;5057308;28;20219;-79
2022/07/12 08:17:54;;;;;;;0.73;0.50;;;32.00;74.90;;;;;;5057768;28;20222;-79
2022/07/12 08:20:23;;;;;;;0.63;0.63;;;32.00;73.60;;;;;;5055506;28;20208;-80
2022/07/12 08:23:11;;;;;;;2.10;0.60;;;31.60;73.20;;;;;;5056905;28;20218;-79
2022/07/12 08:25:40;;;;;;;1.17;0.70;;;32.00;72.70;;;;;;5055592;28;20216;-80
2022/07/12 08:28:08;;;;;;;0.60;0.60;;;31.00;74.90;;;;;;5058338;28;20262;-81
2022/07/12 08:30:37;;;;;;;0.88;0.80;;;31.30;75.00;;;;;;5075576;28;20211;-78
2022/07/12 08:33:13;;;;;;;1.30;0.80;;;31.00;76.30;;;;;;5075696;28;20621;-80
2022/07/12 08:35:41;;;;;;;2.00;0.88;;;30.70;75.60;;;;;;5076326;28;20227;-80
2022/07/12 08:38:10;;;;;;;3.17;0.70;;;31.00;75.70;;;;;;5075878;28;20227;-79
2022/07/12 08:40:40;;;;;;;0.80;0.80;;;31.00;75.20;;;;;;5076047;28;20247;-80
2022/07/12 08:43:09;;;;;;;0.70;0.70;;;31.50;72.90;;;;;;5076960;28;20269;-81
2022/07/12 08:45:37;;;;;;;0.88;0.77;;;30.70;72.80;;;;;;5075262;28;20264;-80
2022/07/12 08:48:06;;;;;;;1.20;0.70;;;29.50;75.60;;;;;;5075107;28;20684;-78
2022/07/12 08:50:36;;;;;;;0.90;0.82;;;28.70;80.80;;;;;;5075793;28;20199;-78
2022/07/12 08:53:13;;;;;;;1.48;0.80;;;29.10;79.00;;;;;;5068569;28;20226;-78
2022/07/12 08:55:43;;;;;;;2.95;0.80;;;29.80;78.20;;;;;;5075729;28;20288;-78
2022/07/12 08:58:18;;;;;;;1.35;0.65;;;29.50;78.40;;;;;;5075209;28;20291;-80
2022/07/12 09:00:47;;;;;;;1.73;0.60;;;29.80;78.30;;;;;;5075010;28;20691;-78
2022/07/12 09:03:18;;;;;;;0.73;0.60;;;30.10;77.10;;;;;;5076053;28;20227;-80
2022/07/12 09:05:54;;;;;;;0.57;0.40;;;31.80;73.00;;;;;;5075953;28;20207;-78
2022/07/12 09:08:28;;;;;;;1.33;0.73;;;31.20;72.80;;;;;;5079081;28;20653;-79
2022/07/12 09:11:01;;;;;;;1.02;0.65;;;32.30;70.50;;;;;;5076457;28;20211;-80
2022/07/12 09:13:49;;;;;;;1.35;0.70;;;31.40;70.40;;;;;;5077077;28;20684;-79
2022/07/12 09:16:19;;;;;;;1.60;0.50;;;29.30;70.50;;;;;;5076621;28;20292;-79
2022/07/12 09:18:49;;;;;;;0.70;0.70;;;28.20;75.30;;;;;;5075054;28;20245;-80
2022/07/12 09:21:28;;;;;;;0.68;0.47;;;28.40;77.60;;;;;;5075693;28;20208;-79
2022/07/12 09:23:57;;;;;;;0.80;0.60;;;29.10;76.10;;;;;;5075060;28;20242;-78
2022/07/12 09:26:31;;;;;;;0.95;0.70;;;28.50;74.70;;;;;;5075893;28;20211;-79
2022/07/12 09:29:06;;;;;;;1.00;0.68;;;28.80;77.50;;;;;;5055210;28;20192;-79
2022/07/12 09:37:18;;;;;;;1.77;0.65;;;28.10;74.20;;;;;;5055553;28;20228;-80
2022/07/12 09:39:48;;;;;;;1.55;0.60;;;28.50;75.90;;;;;;5055765;28;20231;-78
2022/07/12 09:42:19;;;;;;;1.02;0.60;;;29.60;71.50;;;;;;5054284;28;20287;-79
2022/07/12 09:44:56;;;;;;;0.70;0.65;;;30.00;75.40;;;;;;5056082;28;20224;-80
2022/07/12 09:47:25;;;;;;;1.40;0.75;;;29.50;71.00;;;;;;5055048;28;20262;-79
2022/07/12 09:49:54;;;;;;;0.55;0.55;;;29.40;74.70;;;;;;5054561;28;20216;-79
2022/07/12 09:52:25;;;;;;;0.50;0.50;;;31.00;67.70;;;;;;5057949;28;20291;-81
2022/07/12 09:54:55;;;;;;;0.82;0.70;;;30.10;67.90;;;;;;5058637;28;20228;-79
2022/07/12 09:57:28;;;;;;;2.25;0.85;;;29.40;73.00;;;;;;5056723;28;20657;-79
2022/07/12 09:59:58;;;;;;;0.63;0.63;;;29.40;71.30;;;;;;5057934;28;20728;-82
2022/07/12 10:02:26;;;;;;;1.95;0.80;;;30.20;69.00;;;;;;5053685;28;20227;-80
2022/07/12 10:04:56;;;;;;;2.67;0.85;;;29.90;70.70;;;;;;5054621;28;20208;-79
2022/07/12 10:07:24;;;;;;;0.60;0.60;;;30.20;71.20;;;;;;5053692;28;20236;-79
2022/07/12 10:09:54;;;;;;;1.85;0.80;;;30.50;69.80;;;;;;5053761;28;20231;-77
2022/07/12 10:12:25;;;;;;;2.78;0.90;;;30.50;69.70;;;;;;5053757;28;20275;-80
2022/07/12 10:15:00;;;;;;;0.70;0.60;;;30.90;72.60;;;;;;5053446;28;20255;-80
2022/07/12 10:17:30;;;;;;;0.82;0.68;;;29.30;71.20;;;;;;5056084;28;20211;-79
2022/07/12 10:20:17;;;;;;;2.30;0.70;;;28.70;74.10;;;;;;5053928;28;20218;-79
2022/07/12 10:22:45;;;;;;;3.22;1.00;;;28.90;73.10;;;;;;5054971;28;20197;-80
2022/07/12 10:25:30;;;;;;;2.45;0.93;;;29.80;69.70;;;;;;5055377;28;20677;-79
2022/07/12 10:28:01;;;;;;;0.90;0.90;;;29.90;68.70;;;;;;5074284;28;20260;-79
2022/07/12 10:30:30;;;;;;;1.52;0.90;;;29.50;71.40;;;;;;5073962;28;20191;-79
2022/07/12 10:33:00;;;;;;;1.20;0.93;;;28.30;71.60;;;;;;5073536;28;20810;-77
2022/07/12 10:35:29;;;;;;;0.95;0.80;;;27.40;76.40;;;;;;5073115;28;20574;-78
2022/07/12 10:38:18;;;;;;;1.05;0.95;;;26.90;78.10;;;;;;5074303;28;20676;-77
2022/07/12 10:40:49;;;;;;;0.93;0.80;;;27.60;77.50;;;;;;5074080;28;20227;-77
2022/07/12 10:44:04;;;;;;;1.25;0.80;;;28.80;74.40;;;;;;5073690;28;20286;-77
2022/07/12 10:46:19;;;;;;;1.55;0.90;;;29.80;73.00;;;;;;5073296;28;20214;-79
2022/07/12 10:48:48;;;;;;;3.92;0.90;;;30.20;71.80;;;;;;5074675;28;20191;-78
2022/07/12 10:51:19;;;;;;;2.17;0.90;;;31.20;68.80;;;;;;5073337;28;20246;-79
2022/07/12 10:53:50;;;;;;;1.10;1.00;;;31.20;69.60;;;;;;5074029;28;20207;-79
2022/07/12 10:56:25;;;;;;;1.95;0.88;;;31.40;67.20;;;;;;5073107;28;20214;-80
2022/07/12 10:58:59;;;;;;;0.98;0.80;;;30.70;67.20;;;;;;5073908;28;20245;-77
2022/07/12 11:01:30;;;;;;;3.85;0.90;;;29.50;69.90;;;;;;5072517;28;20287;-78
2022/07/12 11:04:06;;;;;;;1.60;0.80;;;28.10;73.20;;;;;;5072762;28;20257;-76
2022/07/12 11:06:36;;;;;;;3.40;0.85;;;27.20;76.50;;;;;;5072554;28;20207;-77
2022/07/12 11:09:05;;;;;;;0.70;0.70;;;26.50;77.70;;;;;;5072577;28;20211;-76
2022/07/12 11:11:40;;;;;;;0.80;0.80;;;26.40;79.00;;;;;;5072052;28;20858;-77
2022/07/12 11:14:10;;;;;;;1.10;1.00;;;27.00;78.80;;;;;;5072660;28;20302;-78
2022/07/12 11:16:45;;;;;;;1.15;0.85;;;28.00;79.40;;;;;;5072926;28;20210;-79
2022/07/12 11:19:14;;;;;;;2.72;0.70;;;29.20;72.30;;;;;;5072481;28;20755;-79
2022/07/12 11:21:45;;;;;;;2.85;0.80;;;28.80;73.20;;;;;;5072713;28;20302;-78
2022/07/12 11:24:17;;;;;;;2.03;0.90;;;28.60;71.70;;;;;;5072567;28;20204;-78
2022/07/12 11:26:46;;;;;;;1.80;1.08;;;29.50;75.40;;;;;;5067814;28;20291;-76
2022/07/12 11:29:16;;;;;;;1.38;0.77;;;29.70;72.30;;;;;;5063841;28;20215;-77
2022/07/12 11:31:44;;;;;;;1.70;0.90;;;29.30;71.30;;;;;;5072979;28;20214;-80
2022/07/12 11:34:20;;;;;;;1.30;1.02;;;29.00;69.50;;;;;;5056809;28;20240;-80
2022/07/12 11:36:51;;;;;;;1.98;0.80;;;29.00;73.60;;;;;;5052851;28;20756;-77
2022/07/12 11:39:31;;;;;;;1.63;0.90;;;28.40;73.20;;;;;;5052357;28;20193;-77
2022/07/12 11:42:04;;;;;;;0.75;0.75;;;27.80;75.50;;;;;;5053982;28;20212;-77
2022/07/12 11:44:47;;;;;;;0.70;0.70;;;27.30;73.40;;;;;;5053250;28;20296;-78
2022/07/12 11:47:17;;;;;;;0.95;0.95;;;26.50;77.80;;;;;;5052505;28;20196;-78
2022/07/12 11:49:47;;;;;;;0.70;0.70;;;26.60;79.10;;;;;;5052413;28;20204;-76
2022/07/12 11:52:17;;;;;;;1.10;0.77;;;26.70;76.40;;;;;;5052756;28;20260;-77
2022/07/12 11:54:46;;;;;;;0.70;0.70;;;27.10;80.30;;;;;;5052567;28;20244;-78
2022/07/12 11:57:15;;;;;;;2.17;0.90;;;27.50;78.40;;;;;;5052663;28;20235;-76
2022/07/12 11:59:43;;;;;;;0.83;0.83;;;27.30;74.10;;;;;;5052691;28;20236;-76
2022/07/12 12:02:15;;;;;;;1.87;0.80;;;26.90;77.00;;;;;;5052200;28;20246;-77
2022/07/12 12:04:51;;;;;;;0.93;0.80;;;25.50;76.00;;;;;;5051597;28;20631;-75
2022/07/12 12:07:21;;;;;;;2.67;0.90;;;25.00;81.90;;;;;;5052040;28;20212;-76
2022/07/12 12:10:04;;;;;;;1.80;1.00;;;24.70;84.50;;;;;;5051932;28;20673;-76
2022/07/12 12:12:40;;;;;;;2.30;1.43;;;24.20;86.60;;;;;;5052060;28;20204;-75
2022/07/12 12:15:10;;;;;;;0.90;0.90;;;24.00;88.50;;;;;;5052202;28;20247;-76
2022/07/12 12:17:45;;;;;;;0.70;0.70;;;24.90;86.20;;;;;;5056319;28;20208;-76
2022/07/12 12:20:16;;;;;;;1.17;1.00;;;25.50;81.50;;;;;;5051642;28;20203;-78
2022/07/12 12:22:46;;;;;;;3.27;0.80;;;25.80;80.20;;;;;;5056161;28;20345;-75
2022/07/12 12:25:16;;;;;;;0.97;0.80;;;25.90;81.20;;;;;;5072089;28;20231;-78
2022/07/12 12:27:46;;;;;;;1.63;0.90;;;25.50;83.00;;;;;;5071868;28;20223;-75
2022/07/12 12:30:36;;;;;;;0.73;0.73;;;25.30;81.80;;;;;;5071816;28;20243;-77
2022/07/12 12:33:06;;;;;;;2.67;1.10;;;25.20;79.70;;;;;;5071852;28;20258;-75
2022/07/12 12:35:38;;;;;;;0.90;0.90;;;25.10;85.00;;;;;;5071541;28;20239;-77
2022/07/12 12:38:13;;;;;;;0.80;0.80;;;24.70;84.50;;;;;;5071533;28;20254;-76
2022/07/12 12:40:50;;;;;;;1.43;0.80;;;24.00;83.20;;;;;;5071214;28;20195;-75
2022/07/12 12:43:20;;;;;;;2.37;0.90;;;23.70;86.30;;;;;;5071478;28;20245;-77
2022/07/12 12:45:52;;;;;;;1.47;0.93;;;24.30;88.00;;;;;;5071802;28;20204;-73
2022/07/12 12:48:23;;;;;;;1.90;1.10;;;24.70;88.00;;;;;;5071400;28;20294;-75
2022/07/12 12:50:53;;;;;;;0.90;0.80;;;25.20;85.30;;;;;;5073600;28;20298;-75
2022/07/12 12:53:24;;;;;;;0.90;0.80;;;25.40;85.50;;;;;;5076101;28;20242;-74
2022/07/12 12:55:54;;;;;;;2.90;1.00;;;25.60;80.40;;;;;;5075485;28;20279;-76
2022/07/12 12:58:23;;;;;;;1.27;0.90;;;25.40;78.50;;;;;;5075335;28;20203;-75
2022/07/12 13:00:54;;;;;;;4.17;1.20;;;25.90;80.30;;;;;;5075096;28;20203;-75
2022/07/12 13:03:25;;;;;;;2.30;0.93;;;26.10;82.10;;;;;;5074861;28;20865;-78
2022/07/12 13:05:54;;;;;;;1.37;0.90;;;26.30;84.30;;;;;;5075276;28;20255;-77
2022/07/12 13:08:22;;;;;;;1.27;1.00;;;26.60;79.50;;;;;;5075339;28;20215;-75
2022/07/12 13:11:18;;;;;;;1.80;0.90;;;26.60;82.00;;;;;;5075758;28;20666;-77
2022/07/12 13:13:41;;;;;;;0.80;0.80;;;26.90;81.60;;;;;;5075978;28;20723;-76
2022/07/12 13:16:10;;;;;;;2.13;1.00;;;27.00;80.10;;;;;;5075868;28;20228;-79